sensor_id;sensor_type;location;lat;lon;timestamp;pressure;altitude;pressure_sealevel;temperature;humidity
15646;BME280;7922;43.622;1.476;2023-07-02T00:01:03;100329.84;;;18.20;100.00
15646;BME280;7922;43.622;1.476;2023-07-02T00:03:29;100385.47;;;18.57;100.00
15646;BME280;7922;43.622;1.476;2023-07-02T00:05:54;100374.63;;;18.45;100.00
15646;BME280;7922;43.622;1.476;2023-07-02T00:08:21;100377.97;;;18.49;100.00
15646;BME280;7922;43.622;1.476;2023-07-02T00:10:46;100369.47;;;18.42;100.00
15646;BME280;7922;43.622;1.476;2023-07-02T00:13:11;100362.81;;;18.48;100.00
15646;BME280;7922;43.622;1.476;2023-07-02T00:15:37;100316.34;;;18.22;100.00
15646;BME280;7922;43.622;1.476;2023-07-02T00:18:02;100361.00;;;18.48;100.00
15646;BME280;7922;43.622;1.476;2023-07-02T00:20:27;100357.22;;;18.51;100.00
15646;BME280;7922;43.622;1.476;2023-07-02T00:22:53;100373.97;;;18.55;100.00
15646;BME280;7922;43.622;1.476;2023-07-02T00:25:18;100367.75;;;18.54;100.00
15646;BME280;7922;43.622;1.476;2023-07-02T00:27:43;100382.38;;;18.63;100.00
15646;BME280;7922;43.622;1.476;2023-07-02T00:30:09;100354.56;;;18.51;100.00
15646;BME280;7922;43.622;1.476;2023-07-02T00:32:34;100361.31;;;18.57;100.00
15646;BME280;7922;43.622;1.476;2023-07-02T00:34:59;100380.31;;;18.66;100.00
15646;BME280;7922;43.622;1.476;2023-07-02T00:37:25;100365.50;;;18.61;100.00
15646;BME280;7922;43.622;1.476;2023-07-02T00:39:50;100301.97;;;18.23;100.00
15646;BME280;7922;43.622;1.476;2023-07-02T00:42:15;100362.94;;;18.59;100.00
15646;BME280;7922;43.622;1.476;2023-07-02T00:44:40;100348.53;;;18.47;100.00
15646;BME280;7922;43.622;1.476;2023-07-02T00:47:09;100344.25;;;18.45;100.00
15646;BME280;7922;43.622;1.476;2023-07-02T00:49:36;100349.19;;;18.51;100.00
15646;BME280;7922;43.622;1.476;2023-07-02T00:52:02;100358.31;;;18.61;100.00
15646;BME280;7922;43.622;1.476;2023-07-02T00:54:28;100345.44;;;18.53;100.00
15646;BME280;7922;43.622;1.476;2023-07-02T00:56:54;100322.16;;;18.41;100.00
15646;BME280;7922;43.622;1.476;2023-07-02T00:59:19;100348.97;;;18.54;100.00
15646;BME280;7922;43.622;1.476;2023-07-02T01:01:44;100268.59;;;18.14;100.00
15646;BME280;7922;43.622;1.476;2023-07-02T01:04:10;100324.94;;;18.40;100.00
15646;BME280;7922;43.622;1.476;2023-07-02T01:06:36;100286.63;;;18.25;100.00
15646;BME280;7922;43.622;1.476;2023-07-02T01:09:03;100343.72;;;18.52;100.00
15646;BME280;7922;43.622;1.476;2023-07-02T01:11:39;100285.00;;;18.22;100.00
15646;BME280;7922;43.622;1.476;2023-07-02T01:14:20;100322.69;;;18.46;100.00
15646;BME280;7922;43.622;1.476;2023-07-02T01:16:47;100324.41;;;18.47;100.00
15646;BME280;7922;43.622;1.476;2023-07-02T01:19:19;100338.38;;;18.52;100.00
15646;BME280;7922;43.622;1.476;2023-07-02T01:21:47;100346.84;;;18.59;100.00
15646;BME280;7922;43.622;1.476;2023-07-02T01:24:13;100321.72;;;18.47;100.00
15646;BME280;7922;43.622;1.476;2023-07-02T01:26:38;100324.31;;;18.49;100.00
15646;BME280;7922;43.622;1.476;2023-07-02T01:29:17;100311.94;;;18.46;100.00
15646;BME280;7922;43.622;1.476;2023-07-02T01:31:43;100342.66;;;18.68;100.00
15646;BME280;7922;43.622;1.476;2023-07-02T01:34:08;100338.78;;;18.59;100.00
15646;BME280;7922;43.622;1.476;2023-07-02T01:36:33;100278.59;;;18.25;100.00
15646;BME280;7922;43.622;1.476;2023-07-02T01:38:59;100327.41;;;18.56;100.00
15646;BME280;7922;43.622;1.476;2023-07-02T01:41:24;100300.56;;;18.43;100.00
15646;BME280;7922;43.622;1.476;2023-07-02T01:43:49;100319.59;;;18.52;100.00
15646;BME280;7922;43.622;1.476;2023-07-02T01:46:14;100319.88;;;18.48;100.00
15646;BME280;7922;43.622;1.476;2023-07-02T01:48:40;100284.50;;;18.30;100.00
15646;BME280;7922;43.622;1.476;2023-07-02T01:51:05;100322.91;;;18.56;100.00
15646;BME280;7922;43.622;1.476;2023-07-02T01:53:30;100301.22;;;18.46;100.00
15646;BME280;7922;43.622;1.476;2023-07-02T01:55:55;100333.31;;;18.61;100.00
15646;BME280;7922;43.622;1.476;2023-07-02T01:58:21;100298.44;;;18.35;100.00
15646;BME280;7922;43.622;1.476;2023-07-02T02:00:46;100311.19;;;18.44;100.00
15646;BME280;7922;43.622;1.476;2023-07-02T02:03:11;100320.53;;;18.51;100.00
15646;BME280;7922;43.622;1.476;2023-07-02T02:05:37;100310.66;;;18.39;100.00
15646;BME280;7922;43.622;1.476;2023-07-02T02:08:02;100263.78;;;18.19;100.00
15646;BME280;7922;43.622;1.476;2023-07-02T02:10:27;100295.34;;;18.41;100.00
15646;BME280;7922;43.622;1.476;2023-07-02T02:12:53;100255.97;;;18.16;100.00
15646;BME280;7922;43.622;1.476;2023-07-02T02:15:18;100303.06;;;18.46;100.00
15646;BME280;7922;43.622;1.476;2023-07-02T02:17:43;100260.22;;;18.19;100.00
15646;BME280;7922;43.622;1.476;2023-07-02T02:20:09;100260.47;;;18.16;100.00
15646;BME280;7922;43.622;1.476;2023-07-02T02:22:34;100313.03;;;18.57;100.00
15646;BME280;7922;43.622;1.476;2023-07-02T02:25:00;100316.78;;;18.54;100.00
15646;BME280;7922;43.622;1.476;2023-07-02T02:27:25;100239.22;;;18.13;100.00
15646;BME280;7922;43.622;1.476;2023-07-02T02:29:50;100247.72;;;18.19;100.00
15646;BME280;7922;43.622;1.476;2023-07-02T02:32:15;100314.31;;;18.64;100.00
15646;BME280;7922;43.622;1.476;2023-07-02T02:34:41;100292.97;;;18.49;100.00
15646;BME280;7922;43.622;1.476;2023-07-02T02:37:06;100307.09;;;18.51;100.00
15646;BME280;7922;43.622;1.476;2023-07-02T02:39:31;100266.66;;;18.29;100.00
15646;BME280;7922;43.622;1.476;2023-07-02T02:41:56;100317.97;;;18.63;100.00
15646;BME280;7922;43.622;1.476;2023-07-02T02:44:22;100288.03;;;18.43;100.00
15646;BME280;7922;43.622;1.476;2023-07-02T02:46:47;100241.38;;;18.20;100.00
15646;BME280;7922;43.622;1.476;2023-07-02T02:49:12;100314.75;;;18.58;100.00
15646;BME280;7922;43.622;1.476;2023-07-02T02:51:38;100288.88;;;18.44;100.00
15646;BME280;7922;43.622;1.476;2023-07-02T02:54:03;100300.03;;;18.50;100.00
15646;BME280;7922;43.622;1.476;2023-07-02T02:56:28;100308.72;;;18.54;100.00
15646;BME280;7922;43.622;1.476;2023-07-02T02:58:53;100286.84;;;18.47;100.00
15646;BME280;7922;43.622;1.476;2023-07-02T03:01:19;100259.28;;;18.33;100.00
15646;BME280;7922;43.622;1.476;2023-07-02T03:03:44;100315.59;;;18.58;100.00
15646;BME280;7922;43.622;1.476;2023-07-02T03:06:09;100303.38;;;18.54;100.00
15646;BME280;7922;43.622;1.476;2023-07-02T03:08:35;100283.72;;;18.41;100.00
15646;BME280;7922;43.622;1.476;2023-07-02T03:11:00;100317.41;;;18.58;100.00
15646;BME280;7922;43.622;1.476;2023-07-02T03:13:25;100306.03;;;18.54;100.00
15646;BME280;7922;43.622;1.476;2023-07-02T03:15:50;100294.88;;;18.47;100.00
15646;BME280;7922;43.622;1.476;2023-07-02T03:18:16;100292.94;;;18.37;100.00
15646;BME280;7922;43.622;1.476;2023-07-02T03:20:41;100255.50;;;18.22;100.00
15646;BME280;7922;43.622;1.476;2023-07-02T03:23:06;100308.94;;;18.51;100.00
15646;BME280;7922;43.622;1.476;2023-07-02T03:25:31;100306.47;;;18.48;100.00
15646;BME280;7922;43.622;1.476;2023-07-02T03:27:57;100245.31;;;18.15;100.00
15646;BME280;7922;43.622;1.476;2023-07-02T03:30:22;100301.09;;;18.48;100.00
15646;BME280;7922;43.622;1.476;2023-07-02T03:32:47;100299.50;;;18.45;100.00
15646;BME280;7922;43.622;1.476;2023-07-02T03:35:12;100299.81;;;18.41;100.00
15646;BME280;7922;43.622;1.476;2023-07-02T03:37:38;100322.34;;;18.51;100.00
15646;BME280;7922;43.622;1.476;2023-07-02T03:40:03;100297.38;;;18.38;100.00
15646;BME280;7922;43.622;1.476;2023-07-02T03:42:29;100297.03;;;18.42;100.00
15646;BME280;7922;43.622;1.476;2023-07-02T03:44:54;100298.88;;;18.42;100.00
15646;BME280;7922;43.622;1.476;2023-07-02T03:47:19;100301.00;;;18.49;100.00
15646;BME280;7922;43.622;1.476;2023-07-02T03:49:45;100281.28;;;18.38;100.00
15646;BME280;7922;43.622;1.476;2023-07-02T03:52:10;100306.47;;;18.48;100.00
15646;BME280;7922;43.622;1.476;2023-07-02T03:54:35;100263.78;;;18.19;100.00
15646;BME280;7922;43.622;1.476;2023-07-02T03:57:01;100303.69;;;18.49;100.00
15646;BME280;7922;43.622;1.476;2023-07-02T03:59:26;100296.19;;;18.42;100.00
15646;BME280;7922;43.622;1.476;2023-07-02T04:01:51;100310.03;;;18.48;100.00
15646;BME280;7922;43.622;1.476;2023-07-02T04:04:16;100240.63;;;18.06;100.00
15646;BME280;7922;43.622;1.476;2023-07-02T04:06:42;100292.00;;;18.38;100.00
15646;BME280;7922;43.622;1.476;2023-07-02T04:09:07;100304.03;;;18.45;100.00
15646;BME280;7922;43.622;1.476;2023-07-02T04:11:32;100302.19;;;18.45;100.00
15646;BME280;7922;43.622;1.476;2023-07-02T04:13:57;100296.41;;;18.39;100.00
15646;BME280;7922;43.622;1.476;2023-07-02T04:16:23;100305.09;;;18.42;100.00
15646;BME280;7922;43.622;1.476;2023-07-02T04:18:48;100309.06;;;18.49;100.00
15646;BME280;7922;43.622;1.476;2023-07-02T04:21:13;100299.19;;;18.50;100.00
15646;BME280;7922;43.622;1.476;2023-07-02T04:23:39;100309.28;;;18.46;100.00
15646;BME280;7922;43.622;1.476;2023-07-02T04:26:04;100314.84;;;18.43;100.00
15646;BME280;7922;43.622;1.476;2023-07-02T04:28:29;100314.13;;;18.41;100.00
15646;BME280;7922;43.622;1.476;2023-07-02T04:30:55;100265.06;;;18.14;100.00
15646;BME280;7922;43.622;1.476;2023-07-02T04:33:20;100245.13;;;18.05;100.00
15646;BME280;7922;43.622;1.476;2023-07-02T04:35:45;100322.16;;;18.41;100.00
15646;BME280;7922;43.622;1.476;2023-07-02T04:38:10;100308.84;;;18.40;100.00
15646;BME280;7922;43.622;1.476;2023-07-02T04:40:36;100254.13;;;17.91;100.00
15646;BME280;7922;43.622;1.476;2023-07-02T04:43:01;100311.19;;;18.19;100.00
15646;BME280;7922;43.622;1.476;2023-07-02T04:45:26;100252.94;;;17.95;100.00
15646;BME280;7922;43.622;1.476;2023-07-02T04:47:52;100295.97;;;18.19;100.00
15646;BME280;7922;43.622;1.476;2023-07-02T04:50:18;100330.09;;;18.43;100.00
15646;BME280;7922;43.622;1.476;2023-07-02T04:52:44;100304.03;;;18.19;100.00
15646;BME280;7922;43.622;1.476;2023-07-02T04:55:09;100295.09;;;18.19;100.00
15646;BME280;7922;43.622;1.476;2023-07-02T04:57:35;100323.19;;;18.26;100.00
15646;BME280;7922;43.622;1.476;2023-07-02T05:00:01;100235.44;;;17.90;100.00
15646;BME280;7922;43.622;1.476;2023-07-02T05:02:26;100250.69;;;18.02;100.00
15646;BME280;7922;43.622;1.476;2023-07-02T05:04:51;100265.81;;;18.03;100.00
15646;BME280;7922;43.622;1.476;2023-07-02T05:07:17;100263.44;;;17.98;100.00
15646;BME280;7922;43.622;1.476;2023-07-02T05:09:42;100240.91;;;17.88;100.00
15646;BME280;7922;43.622;1.476;2023-07-02T05:12:08;100238.75;;;17.80;100.00
15646;BME280;7922;43.622;1.476;2023-07-02T05:14:33;100300.25;;;18.22;100.00
15646;BME280;7922;43.622;1.476;2023-07-02T05:16:58;100284.47;;;18.17;100.00
15646;BME280;7922;43.622;1.476;2023-07-02T05:19:24;100309.78;;;18.26;100.00
15646;BME280;7922;43.622;1.476;2023-07-02T05:21:49;100302.63;;;18.26;100.00
15646;BME280;7922;43.622;1.476;2023-07-02T05:24:14;100319.56;;;18.40;100.00
15646;BME280;7922;43.622;1.476;2023-07-02T05:26:39;100262.69;;;17.96;100.00
15646;BME280;7922;43.622;1.476;2023-07-02T05:29:05;100273.31;;;18.11;100.00
15646;BME280;7922;43.622;1.476;2023-07-02T05:31:30;100314.41;;;18.24;100.00
15646;BME280;7922;43.622;1.476;2023-07-02T05:33:56;100301.75;;;18.26;100.00
15646;BME280;7922;43.622;1.476;2023-07-02T05:36:21;100328.16;;;18.45;100.00
15646;BME280;7922;43.622;1.476;2023-07-02T05:38:47;100317.44;;;18.45;100.00
15646;BME280;7922;43.622;1.476;2023-07-02T05:41:18;100303.06;;;18.46;100.00
15646;BME280;7922;43.622;1.476;2023-07-02T05:43:43;100265.72;;;18.30;100.00
15646;BME280;7922;43.622;1.476;2023-07-02T05:46:09;100264.81;;;18.55;100.00
15646;BME280;7922;43.622;1.476;2023-07-02T05:48:34;100297.03;;;18.81;100.00
15646;BME280;7922;43.622;1.476;2023-07-02T05:50:59;100316.56;;;18.95;100.00
15646;BME280;7922;43.622;1.476;2023-07-02T05:53:24;100323.75;;;18.95;100.00
15646;BME280;7922;43.622;1.476;2023-07-02T05:55:50;100308.53;;;18.95;100.00
15646;BME280;7922;43.622;1.476;2023-07-02T05:58:15;100279.72;;;18.97;100.00
15646;BME280;7922;43.622;1.476;2023-07-02T06:00:40;100330.81;;;19.45;100.00
15646;BME280;7922;43.622;1.476;2023-07-02T06:03:05;100269.66;;;19.25;100.00
15646;BME280;7922;43.622;1.476;2023-07-02T06:05:31;100308.84;;;19.28;100.00
15646;BME280;7922;43.622;1.476;2023-07-02T06:07:56;100316.66;;;19.31;100.00
15646;BME280;7922;43.622;1.476;2023-07-02T06:10:21;100320.06;;;19.45;100.00
15646;BME280;7922;43.622;1.476;2023-07-02T06:12:46;100324.75;;;19.55;100.00
15646;BME280;7922;43.622;1.476;2023-07-02T06:15:12;100309.25;;;19.58;100.00
15646;BME280;7922;43.622;1.476;2023-07-02T06:17:37;100323.88;;;19.30;100.00
15646;BME280;7922;43.622;1.476;2023-07-02T06:20:03;100325.56;;;19.44;100.00
15646;BME280;7922;43.622;1.476;2023-07-02T06:22:29;100316.78;;;19.53;100.00
15646;BME280;7922;43.622;1.476;2023-07-02T06:24:54;100316.66;;;19.67;100.00
15646;BME280;7922;43.622;1.476;2023-07-02T06:27:19;100322.34;;;19.76;100.00
15646;BME280;7922;43.622;1.476;2023-07-02T06:29:44;100320.69;;;19.49;100.00
15646;BME280;7922;43.622;1.476;2023-07-02T06:32:10;100324.97;;;19.52;100.00
15646;BME280;7922;43.622;1.476;2023-07-02T06:34:35;100323.91;;;19.54;100.00
15646;BME280;7922;43.622;1.476;2023-07-02T06:37:00;100310.88;;;19.61;100.00
15646;BME280;7922;43.622;1.476;2023-07-02T06:39:25;100323.16;;;19.28;100.00
15646;BME280;7922;43.622;1.476;2023-07-02T06:41:51;100322.59;;;19.23;100.00
15646;BME280;7922;43.622;1.476;2023-07-02T06:44:16;100337.81;;;19.35;100.00
15646;BME280;7922;43.622;1.476;2023-07-02T06:46:41;100336.16;;;19.45;100.00
15646;BME280;7922;43.622;1.476;2023-07-02T06:49:07;100324.91;;;19.40;100.00
15646;BME280;7922;43.622;1.476;2023-07-02T06:51:32;100335.44;;;19.43;100.00
15646;BME280;7922;43.622;1.476;2023-07-02T06:53:57;100335.84;;;19.50;100.00
15646;BME280;7922;43.622;1.476;2023-07-02T06:56:23;100336.31;;;19.68;100.00
15646;BME280;7922;43.622;1.476;2023-07-02T06:58:48;100321.00;;;19.81;100.00
15646;BME280;7922;43.622;1.476;2023-07-02T07:01:13;100343.25;;;19.83;100.00
15646;BME280;7922;43.622;1.476;2023-07-02T07:03:38;100347.44;;;19.87;100.00
15646;BME280;7922;43.622;1.476;2023-07-02T07:06:04;100327.75;;;19.63;100.00
15646;BME280;7922;43.622;1.476;2023-07-02T07:08:29;100345.41;;;19.78;100.00
15646;BME280;7922;43.622;1.476;2023-07-02T07:10:55;100312.25;;;19.66;100.00
15646;BME280;7922;43.622;1.476;2023-07-02T07:13:20;100312.31;;;19.54;100.00
15646;BME280;7922;43.622;1.476;2023-07-02T07:15:46;100287.94;;;19.44;100.00
15646;BME280;7922;43.622;1.476;2023-07-02T07:18:11;100341.69;;;19.68;100.00
15646;BME280;7922;43.622;1.476;2023-07-02T07:20:38;100339.41;;;19.75;100.00
15646;BME280;7922;43.622;1.476;2023-07-02T07:23:04;100340.13;;;19.65;100.00
15646;BME280;7922;43.622;1.476;2023-07-02T07:25:30;100298.25;;;19.50;100.00
15646;BME280;7922;43.622;1.476;2023-07-02T07:27:55;100343.53;;;19.67;100.00
15646;BME280;7922;43.622;1.476;2023-07-02T07:30:21;100333.19;;;19.74;100.00
15646;BME280;7922;43.622;1.476;2023-07-02T07:32:46;100335.72;;;19.52;100.00
15646;BME280;7922;43.622;1.476;2023-07-02T07:35:11;100348.53;;;19.48;100.00
15646;BME280;7922;43.622;1.476;2023-07-02T07:37:37;100293.59;;;19.28;100.00
15646;BME280;7922;43.622;1.476;2023-07-02T07:40:03;100330.81;;;19.45;100.00
15646;BME280;7922;43.622;1.476;2023-07-02T07:42:29;100352.84;;;19.75;100.00
15646;BME280;7922;43.622;1.476;2023-07-02T07:44:54;100333.53;;;19.93;100.00
15646;BME280;7922;43.622;1.476;2023-07-02T07:47:19;100297.66;;;20.17;96.65
15646;BME280;7922;43.622;1.476;2023-07-02T07:49:45;100307.09;;;20.23;96.20
15646;BME280;7922;43.622;1.476;2023-07-02T07:52:10;100315.22;;;20.10;96.86
15646;BME280;7922;43.622;1.476;2023-07-02T07:54:35;100340.75;;;20.04;97.98
15646;BME280;7922;43.622;1.476;2023-07-02T07:57:03;100294.56;;;19.75;99.22
15646;BME280;7922;43.622;1.476;2023-07-02T07:59:28;100332.03;;;20.25;97.76
15646;BME280;7922;43.622;1.476;2023-07-02T08:01:53;100340.63;;;20.41;97.65
15646;BME280;7922;43.622;1.476;2023-07-02T08:04:18;100335.81;;;19.87;100.00
15646;BME280;7922;43.622;1.476;2023-07-02T08:06:44;100358.19;;;19.63;100.00
15646;BME280;7922;43.622;1.476;2023-07-02T08:09:09;100372.91;;;19.58;100.00
15646;BME280;7922;43.622;1.476;2023-07-02T08:11:34;100357.16;;;19.77;100.00
15646;BME280;7922;43.622;1.476;2023-07-02T08:13:59;100356.03;;;19.56;100.00
15646;BME280;7922;43.622;1.476;2023-07-02T08:16:25;100361.84;;;19.62;100.00
15646;BME280;7922;43.622;1.476;2023-07-02T08:18:50;100353.06;;;19.71;100.00
15646;BME280;7922;43.622;1.476;2023-07-02T08:21:15;100363.44;;;19.89;100.00
15646;BME280;7922;43.622;1.476;2023-07-02T08:23:42;100361.72;;;19.88;100.00
15646;BME280;7922;43.622;1.476;2023-07-02T08:26:07;100356.00;;;19.92;100.00
15646;BME280;7922;43.622;1.476;2023-07-02T08:28:33;100365.38;;;20.22;100.00
15646;BME280;7922;43.622;1.476;2023-07-02T08:30:58;100195.44;;;19.35;100.00
15646;BME280;7922;43.622;1.476;2023-07-02T08:33:23;100347.81;;;20.40;100.00
15646;BME280;7922;43.622;1.476;2023-07-02T08:35:48;100365.88;;;20.51;100.00
15646;BME280;7922;43.622;1.476;2023-07-02T08:38:14;100363.72;;;20.32;100.00
15646;BME280;7922;43.622;1.476;2023-07-02T08:40:39;100351.28;;;20.42;100.00
15646;BME280;7922;43.622;1.476;2023-07-02T08:43:04;100343.25;;;20.87;100.00
15646;BME280;7922;43.622;1.476;2023-07-02T08:47:55;100300.38;;;21.29;97.58
15646;BME280;7922;43.622;1.476;2023-07-02T08:50:21;100343.00;;;21.90;96.94
15646;BME280;7922;43.622;1.476;2023-07-02T08:52:46;100346.41;;;21.92;97.32
15646;BME280;7922;43.622;1.476;2023-07-02T08:55:11;100339.38;;;22.01;95.53
15646;BME280;7922;43.622;1.476;2023-07-02T08:57:37;100351.97;;;21.79;95.75
15646;BME280;7922;43.622;1.476;2023-07-02T09:00:11;100337.09;;;21.53;97.10
15646;BME280;7922;43.622;1.476;2023-07-02T09:02:36;100362.25;;;20.75;100.00
15646;BME280;7922;43.622;1.476;2023-07-02T09:05:03;100340.75;;;20.39;100.00
15646;BME280;7922;43.622;1.476;2023-07-02T09:07:28;100329.09;;;20.28;100.00
15646;BME280;7922;43.622;1.476;2023-07-02T09:09:53;100281.47;;;20.06;100.00
15646;BME280;7922;43.622;1.476;2023-07-02T09:12:37;100358.69;;;20.52;100.00
15646;BME280;7922;43.622;1.476;2023-07-02T09:15:04;100353.66;;;20.58;99.84
15646;BME280;7922;43.622;1.476;2023-07-02T09:17:31;100360.88;;;20.58;99.72
15646;BME280;7922;43.622;1.476;2023-07-02T09:19:58;100355.41;;;20.35;100.00
15646;BME280;7922;43.622;1.476;2023-07-02T09:22:23;100374.91;;;20.15;100.00
15646;BME280;7922;43.622;1.476;2023-07-02T09:24:53;100364.03;;;20.16;100.00
15646;BME280;7922;43.622;1.476;2023-07-02T09:27:19;100326.19;;;19.95;100.00
15646;BME280;7922;43.622;1.476;2023-07-02T09:29:50;100366.28;;;19.99;100.00
15646;BME280;7922;43.622;1.476;2023-07-02T09:32:24;100278.84;;;19.82;100.00
15646;BME280;7922;43.622;1.476;2023-07-02T09:34:49;100381.97;;;20.98;100.00
15646;BME280;7922;43.622;1.476;2023-07-02T09:37:14;100363.59;;;21.14;100.00
15646;BME280;7922;43.622;1.476;2023-07-02T09:39:40;100363.84;;;21.11;99.92
15646;BME280;7922;43.622;1.476;2023-07-02T09:42:06;100348.66;;;21.21;100.00
15646;BME280;7922;43.622;1.476;2023-07-02T09:44:33;100330.13;;;21.28;100.00
15646;BME280;7922;43.622;1.476;2023-07-02T09:47:06;100348.19;;;21.71;97.11
15646;BME280;7922;43.622;1.476;2023-07-02T09:49:53;100362.41;;;22.16;96.98
15646;BME280;7922;43.622;1.476;2023-07-02T09:52:19;100359.84;;;22.56;95.17
15646;BME280;7922;43.622;1.476;2023-07-02T09:54:46;100361.63;;;22.46;95.04
15646;BME280;7922;43.622;1.476;2023-07-02T09:57:12;100329.88;;;22.39;94.22
15646;BME280;7922;43.622;1.476;2023-07-02T09:59:39;100324.22;;;22.42;92.51
15646;BME280;7922;43.622;1.476;2023-07-02T10:02:04;100359.31;;;22.21;94.33
15646;BME280;7922;43.622;1.476;2023-07-02T10:04:40;100376.13;;;22.13;94.61
15646;BME280;7922;43.622;1.476;2023-07-02T10:07:05;100308.84;;;21.79;94.31
15646;BME280;7922;43.622;1.476;2023-07-02T10:09:36;100362.59;;;22.66;91.73
15646;BME280;7922;43.622;1.476;2023-07-02T10:12:01;100367.34;;;23.35;88.97
15646;BME280;7922;43.622;1.476;2023-07-02T10:14:27;100365.16;;;23.69;88.04
15646;BME280;7922;43.622;1.476;2023-07-02T10:16:53;100381.00;;;23.93;87.46
15646;BME280;7922;43.622;1.476;2023-07-02T10:19:19;100377.88;;;23.98;85.54
15646;BME280;7922;43.622;1.476;2023-07-02T10:24:56;100383.00;;;24.30;82.68
15646;BME280;7922;43.622;1.476;2023-07-02T10:27:39;100339.25;;;24.15;82.68
15646;BME280;7922;43.622;1.476;2023-07-02T10:30:07;100382.00;;;24.50;82.25
15646;BME280;7922;43.622;1.476;2023-07-02T10:32:36;100382.03;;;24.41;81.51
15646;BME280;7922;43.622;1.476;2023-07-02T10:35:12;100390.81;;;24.14;83.95
15646;BME280;7922;43.622;1.476;2023-07-02T10:37:38;100387.00;;;24.26;83.64
15646;BME280;7922;43.622;1.476;2023-07-02T10:40:07;100381.25;;;24.39;80.54
15646;BME280;7922;43.622;1.476;2023-07-02T10:42:32;100358.34;;;24.14;81.97
15646;BME280;7922;43.622;1.476;2023-07-02T10:44:57;100340.69;;;24.10;82.22
15646;BME280;7922;43.622;1.476;2023-07-02T10:47:23;100370.03;;;24.14;82.01
15646;BME280;7922;43.622;1.476;2023-07-02T10:49:48;100367.88;;;23.79;83.88
15646;BME280;7922;43.622;1.476;2023-07-02T10:52:13;100370.03;;;24.14;83.58
15646;BME280;7922;43.622;1.476;2023-07-02T10:54:43;100360.25;;;23.63;82.72
15646;BME280;7922;43.622;1.476;2023-07-02T10:57:10;100363.34;;;23.80;81.54
15646;BME280;7922;43.622;1.476;2023-07-02T10:59:36;100373.44;;;23.87;81.54
15646;BME280;7922;43.622;1.476;2023-07-02T11:02:01;100370.03;;;23.95;82.84
15646;BME280;7922;43.622;1.476;2023-07-02T11:04:26;100361.47;;;23.80;81.74
15646;BME280;7922;43.622;1.476;2023-07-02T11:06:52;100363.91;;;24.02;81.33
15646;BME280;7922;43.622;1.476;2023-07-02T11:09:17;100356.91;;;24.10;81.04
15646;BME280;7922;43.622;1.476;2023-07-02T11:12:00;100344.38;;;24.47;77.75
15646;BME280;7922;43.622;1.476;2023-07-02T11:14:34;100354.59;;;25.01;77.39
15646;BME280;7922;43.622;1.476;2023-07-02T11:17:05;100366.28;;;25.20;77.96
15646;BME280;7922;43.622;1.476;2023-07-02T11:19:34;100367.56;;;25.07;77.52
15646;BME280;7922;43.622;1.476;2023-07-02T11:22:00;100355.06;;;24.39;78.52
15646;BME280;7922;43.622;1.476;2023-07-02T11:24:30;100363.19;;;23.91;81.37
15646;BME280;7922;43.622;1.476;2023-07-02T11:26:57;100383.25;;;23.88;83.01
15646;BME280;7922;43.622;1.476;2023-07-02T11:29:22;100318.56;;;23.46;82.52
15646;BME280;7922;43.622;1.476;2023-07-02T11:31:47;100359.28;;;23.64;78.77
15646;BME280;7922;43.622;1.476;2023-07-02T11:36:39;100351.22;;;24.13;80.65
15646;BME280;7922;43.622;1.476;2023-07-02T11:39:04;100324.69;;;24.36;78.45
15646;BME280;7922;43.622;1.476;2023-07-02T11:41:39;100308.63;;;24.05;73.22
15646;BME280;7922;43.622;1.476;2023-07-02T11:44:05;100355.34;;;24.56;73.84
15646;BME280;7922;43.622;1.476;2023-07-02T11:46:31;100355.88;;;25.61;73.61
15646;BME280;7922;43.622;1.476;2023-07-02T11:48:56;100347.47;;;26.18;71.08
15646;BME280;7922;43.622;1.476;2023-07-02T11:51:21;100351.59;;;25.86;70.44
15646;BME280;7922;43.622;1.476;2023-07-02T11:53:47;100347.34;;;25.56;70.23
15646;BME280;7922;43.622;1.476;2023-07-02T11:56:12;100315.25;;;24.96;71.97
15646;BME280;7922;43.622;1.476;2023-07-02T11:58:37;100311.81;;;24.94;72.80
15646;BME280;7922;43.622;1.476;2023-07-02T12:01:03;100323.41;;;25.69;71.33
15646;BME280;7922;43.622;1.476;2023-07-02T12:03:28;100325.09;;;25.70;69.50
15646;BME280;7922;43.622;1.476;2023-07-02T12:05:53;100321.75;;;25.86;67.82
15646;BME280;7922;43.622;1.476;2023-07-02T12:08:18;100265.88;;;25.48;67.07
15646;BME280;7922;43.622;1.476;2023-07-02T12:10:44;100322.22;;;25.82;68.66
15646;BME280;7922;43.622;1.476;2023-07-02T12:13:09;100319.66;;;25.80;68.36
15646;BME280;7922;43.622;1.476;2023-07-02T12:15:34;100299.88;;;25.25;66.91
15646;BME280;7922;43.622;1.476;2023-07-02T12:18:00;100345.06;;;24.96;68.50
15646;BME280;7922;43.622;1.476;2023-07-02T12:20:25;100309.63;;;24.14;70.87
15646;BME280;7922;43.622;1.476;2023-07-02T12:22:50;100300.22;;;23.89;73.77
15646;BME280;7922;43.622;1.476;2023-07-02T12:25:15;100279.59;;;23.88;73.70
15646;BME280;7922;43.622;1.476;2023-07-02T12:27:41;100288.41;;;23.70;74.36
15646;BME280;7922;43.622;1.476;2023-07-02T12:30:07;100321.00;;;24.17;72.60
15646;BME280;7922;43.622;1.476;2023-07-02T12:32:32;100323.16;;;24.14;73.30
15646;BME280;7922;43.622;1.476;2023-07-02T12:34:57;100300.94;;;24.10;72.51
15646;BME280;7922;43.622;1.476;2023-07-02T12:37:23;100325.03;;;23.94;72.23
15646;BME280;7922;43.622;1.476;2023-07-02T12:39:48;100318.13;;;23.51;72.95
15646;BME280;7922;43.622;1.476;2023-07-02T12:42:13;100314.94;;;23.26;72.38
15646;BME280;7922;43.622;1.476;2023-07-02T12:44:38;100283.44;;;22.96;73.43
15646;BME280;7922;43.622;1.476;2023-07-02T12:47:04;100274.59;;;22.94;73.35
15646;BME280;7922;43.622;1.476;2023-07-02T12:49:29;100286.78;;;23.29;72.72
15646;BME280;7922;43.622;1.476;2023-07-02T12:51:54;100286.19;;;23.16;70.95
15646;BME280;7922;43.622;1.476;2023-07-02T12:54:20;100332.28;;;23.24;73.37